createdAt,value
2019-03-10T00:05:00.176Z,10.20
2019-03-10T00:11:31.758Z,10.20
2019-03-10T00:18:02.265Z,10.20
2019-03-10T00:24:32.968Z,10.10
2019-03-10T00:31:04.738Z,10.10
2019-03-10T00:37:35.879Z,10.20
2019-03-10T00:44:43.395Z,10.40
2019-03-10T00:51:40.248Z,10.40
2019-03-10T00:58:11.466Z,10.40
2019-03-10T01:01:35.757Z,10.40
2019-03-10T01:08:07.103Z,10.30
2019-03-10T01:10:37.199Z,10.30
2019-03-10T01:17:09.053Z,10.10
2019-03-10T01:23:39.873Z,10.10
2019-03-10T01:27:04.083Z,10.20
2019-03-10T01:33:41.112Z,10.10
2019-03-10T01:37:05.786Z,10.00
2019-03-10T01:43:36.542Z,9.90
2019-03-10T01:50:10.692Z,9.70
2019-03-10T01:56:41.731Z,9.60
2019-03-10T02:00:05.819Z,9.60
2019-03-10T02:06:36.956Z,9.50
2019-03-10T02:13:08.014Z,9.50
2019-03-10T02:19:38.867Z,9.60
2019-03-10T02:26:09.378Z,9.70
2019-03-10T02:29:33.664Z,9.80
2019-03-10T02:36:04.523Z,9.80
2019-03-10T02:39:28.686Z,9.90
2019-03-10T02:45:58.971Z,9.90
2019-03-10T02:52:29.812Z,9.90
2019-03-10T02:55:54.408Z,9.90
2019-03-10T03:02:25.361Z,9.90
2019-03-10T03:05:49.954Z,9.80
2019-03-10T03:12:20.872Z,9.70
2019-03-10T03:14:50.843Z,9.60
2019-03-10T03:21:21.740Z,9.50
2019-03-10T03:24:46.193Z,9.40
2019-03-10T03:31:16.911Z,9.30
2019-03-10T03:34:41.280Z,9.20
2019-03-10T03:41:16.936Z,9.10
2019-03-10T03:47:48.261Z,9.10
2019-03-10T03:51:12.856Z,9.00
2019-03-10T03:57:43.859Z,8.90
2019-03-10T04:01:08.439Z,8.90
2019-03-10T04:07:39.415Z,8.90
2019-03-10T04:14:10.309Z,8.80
2019-03-10T04:20:40.778Z,8.80
2019-03-10T04:27:11.811Z,8.60
2019-03-10T04:33:43.158Z,8.60
2019-03-10T04:36:33.792Z,8.50
2019-03-10T04:43:04.332Z,8.60
2019-03-10T04:49:35.291Z,8.70
2019-03-10T04:56:13.446Z,8.70
2019-03-10T05:02:44.494Z,9.20
2019-03-10T05:09:15.090Z,10.20
2019-03-10T05:12:39.822Z,10.50
2019-03-10T05:15:09.785Z,10.70
2019-03-10T05:21:40.642Z,11.00
2019-03-10T05:28:11.377Z,11.10
2019-03-10T05:31:09.591Z,11.20
2019-03-10T05:37:39.793Z,11.10
2019-03-10T05:44:09.688Z,11.10
2019-03-10T05:50:39.510Z,11.30
2019-03-10T05:54:04.172Z,11.30
2019-03-10T06:00:42.127Z,11.30
2019-03-10T06:04:00.025Z,11.40
2019-03-10T06:10:30.127Z,11.50
2019-03-10T06:13:55.960Z,11.50
2019-03-10T06:16:25.814Z,11.50
2019-03-10T06:22:56.487Z,11.40
2019-03-10T06:25:41.906Z,11.30
2019-03-10T06:36:12.496Z,11.20
2019-03-10T06:42:42.840Z,11.20
2019-03-10T06:49:13.146Z,11.40
2019-03-10T06:51:55.819Z,11.50
2019-03-10T07:02:26.132Z,11.70
2019-03-10T07:08:56.225Z,11.90
2019-03-10T07:12:20.119Z,12.00
2019-03-10T07:18:49.751Z,12.20
2019-03-10T07:29:24.999Z,12.50
2019-03-10T07:32:49.807Z,12.60
2019-03-10T07:39:34.524Z,12.80
2019-03-10T07:42:14.842Z,13.00
2019-03-10T07:48:49.717Z,13.00
2019-03-10T07:55:33.838Z,13.30
2019-03-10T08:02:23.003Z,13.20
2019-03-10T08:05:47.202Z,13.00
2019-03-10T08:12:19.552Z,13.00
2019-03-10T08:19:00.730Z,12.70
2019-03-10T08:25:49.734Z,12.30
2019-03-10T08:29:14.486Z,12.10
2019-03-10T08:36:03.467Z,12.10
2019-03-10T08:42:44.659Z,11.90
2019-03-10T08:46:09.273Z,11.80
2019-03-10T08:52:41.618Z,11.60
2019-03-10T08:59:14.127Z,11.40
2019-03-10T09:02:38.491Z,11.30
2019-03-10T09:09:13.670Z,11.20
2019-03-10T09:15:52.336Z,11.10
2019-03-10T09:18:31.305Z,11.00
2019-03-10T09:21:02.800Z,11.00
2019-03-10T09:27:50.369Z,11.00
2019-03-10T09:31:14.720Z,11.10
2019-03-10T09:37:55.012Z,11.00
2019-03-10T09:44:35.354Z,11.00
2019-03-10T09:47:59.795Z,11.10
2019-03-10T09:54:48.044Z,11.30
2019-03-10T09:58:12.063Z,11.40
2019-03-10T10:04:44.184Z,11.50
2019-03-10T10:11:16.422Z,11.40
2019-03-10T10:14:41.130Z,11.40
2019-03-10T10:21:25.318Z,11.40
2019-03-10T10:28:00.635Z,11.80
2019-03-10T10:31:06.659Z,12.00
2019-03-10T10:37:41.209Z,12.30
2019-03-10T10:40:28.787Z,12.50
2019-03-10T10:43:52.955Z,12.60
2019-03-10T10:54:25.280Z,13.40
2019-03-10T11:00:59.275Z,13.40
2019-03-10T11:07:47.840Z,13.30
2019-03-10T11:11:12.527Z,13.40
2019-03-10T11:17:50.652Z,13.90
2019-03-10T11:24:38.056Z,14.20
2019-03-10T11:31:26.917Z,14.80
2019-03-10T11:34:51.427Z,14.90
2019-03-10T11:41:33.404Z,14.90
2019-03-10T11:48:09.432Z,14.70
2019-03-10T11:51:15.609Z,14.70
2019-03-10T11:57:59.509Z,14.60
2019-03-10T12:04:31.777Z,14.40
2019-03-10T12:11:02.493Z,14.00
2019-03-10T12:14:08.696Z,13.60
2019-03-10T12:20:39.534Z,13.30
2019-03-10T12:27:10.310Z,13.60
2019-03-10T12:30:34.523Z,13.70
2019-03-10T12:37:05.113Z,13.60
2019-03-10T12:40:29.779Z,13.50
2019-03-10T12:47:00.280Z,13.40
2019-03-10T12:50:24.720Z,13.20
2019-03-10T12:56:56.052Z,13.20
2019-03-10T13:00:20.642Z,13.10
2019-03-10T13:06:51.682Z,13.00
2019-03-10T13:10:16.495Z,13.00
2019-03-10T13:16:47.630Z,13.20
2019-03-10T13:23:18.584Z,13.40
2019-03-10T13:29:49.238Z,13.70
2019-03-10T13:36:19.613Z,13.90
2019-03-10T13:42:50.682Z,13.60
2019-03-10T13:49:21.513Z,13.40
2019-03-10T13:55:52.442Z,13.50
2019-03-10T14:02:23.136Z,13.80
2019-03-10T14:05:47.572Z,13.70
2019-03-10T14:12:17.739Z,14.20
2019-03-10T14:18:48.364Z,14.40
2019-03-10T14:25:19.100Z,14.50
2019-03-10T14:31:49.874Z,14.30
2019-03-10T14:38:20.800Z,13.90
2019-03-10T14:41:41.422Z,13.80
2019-03-10T14:52:12.025Z,13.70
2019-03-10T14:58:42.746Z,13.60
2019-03-10T15:05:13.005Z,12.70
2019-03-10T15:11:43.160Z,12.30
2019-03-10T15:18:13.644Z,12.30
2019-03-10T15:21:38.281Z,12.50
2019-03-10T15:28:09.189Z,12.80
2019-03-10T15:31:01.572Z,12.90
2019-03-10T15:33:31.496Z,12.70
2019-03-10T15:40:01.570Z,11.80
2019-03-10T15:46:31.850Z,11.70
2019-03-10T15:53:01.952Z,11.50
2019-03-10T15:59:31.918Z,11.70
2019-03-10T16:06:02.291Z,12.10
2019-03-10T16:12:32.880Z,12.00
2019-03-10T16:15:57.464Z,11.90
2019-03-10T16:22:28.727Z,11.70
2019-03-10T16:25:53.325Z,11.70
2019-03-10T16:32:24.622Z,11.80
2019-03-10T16:38:55.379Z,10.90
2019-03-10T16:42:19.544Z,10.40
2019-03-10T16:48:50.598Z,9.80
2019-03-10T16:52:14.942Z,9.70
2019-03-10T16:58:45.648Z,9.70
2019-03-10T17:05:20.674Z,9.80
2019-03-10T17:11:51.462Z,9.80
2019-03-10T17:18:21.956Z,9.80
2019-03-10T17:21:46.508Z,9.90
2019-03-10T17:28:17.234Z,10.40
2019-03-10T17:34:47.824Z,10.20
2019-03-10T17:41:18.170Z,9.80
2019-03-10T17:47:48.734Z,9.70
2019-03-10T17:51:13.238Z,9.70
2019-03-10T17:57:44.595Z,9.70
2019-03-10T18:01:09.251Z,9.70
2019-03-10T18:07:40.225Z,9.70
2019-03-10T18:14:11.781Z,9.70
2019-03-10T18:17:18.039Z,10.00
2019-03-10T18:23:49.065Z,10.00
2019-03-10T18:30:21.909Z,9.80
2019-03-10T18:36:52.668Z,9.30
2019-03-10T18:43:25.119Z,8.70
2019-03-10T18:46:48.833Z,8.40
2019-03-10T18:53:19.736Z,8.40
2019-03-10T18:59:50.759Z,8.20
2019-03-10T19:03:15.287Z,8.10
2019-03-10T19:09:46.318Z,8.00
2019-03-10T19:13:10.649Z,8.10
2019-03-10T19:19:41.308Z,8.10
2019-03-10T19:23:05.941Z,8.00
2019-03-10T19:29:36.732Z,7.90
2019-03-10T19:33:01.425Z,7.90
2019-03-10T19:39:31.949Z,7.90
2019-03-10T19:46:02.591Z,8.00
2019-03-10T19:52:33.048Z,8.00
2019-03-10T19:59:03.933Z,7.90
2019-03-10T20:02:28.601Z,7.90
2019-03-10T20:09:01.347Z,8.00
2019-03-10T20:12:26.065Z,7.90
2019-03-10T20:18:56.647Z,8.10
2019-03-10T20:22:20.790Z,8.10
2019-03-10T20:28:51.600Z,8.10
2019-03-10T20:32:15.916Z,8.20
2019-03-10T20:38:46.778Z,8.10
2019-03-10T20:41:16.751Z,8.10
2019-03-10T20:47:47.298Z,8.20
2019-03-10T20:54:18.055Z,8.10
2019-03-10T21:00:49.352Z,8.10
2019-03-10T21:07:20.289Z,8.00
2019-03-10T21:13:50.570Z,8.00
2019-03-10T21:20:24.996Z,8.00
2019-03-10T21:23:49.522Z,8.00
2019-03-10T21:30:26.247Z,7.90
2019-03-10T21:33:50.565Z,7.80
2019-03-10T21:40:30.219Z,7.70
2019-03-10T21:47:01.274Z,7.60
2019-03-10T21:50:25.861Z,7.70
2019-03-10T21:56:56.171Z,7.50
2019-03-10T22:00:20.878Z,7.40
2019-03-10T22:06:51.359Z,7.50
2019-03-10T22:10:26.367Z,7.50
2019-03-10T22:16:48.493Z,7.40
2019-03-10T22:20:13.195Z,7.40
2019-03-10T22:26:43.594Z,7.40
2019-03-10T22:29:39.478Z,7.50
2019-03-10T22:36:09.336Z,7.50
2019-03-10T22:39:33.139Z,7.50
2019-03-10T22:42:02.880Z,7.50
2019-03-10T22:48:32.865Z,7.40
2019-03-10T22:55:03.699Z,7.30
2019-03-10T23:01:34.049Z,7.00
2019-03-10T23:04:58.599Z,7.00
2019-03-10T23:11:28.817Z,7.00
2019-03-10T23:14:53.498Z,6.90
2019-03-10T23:21:24.051Z,7.00
2019-03-10T23:24:48.557Z,7.00
2019-03-10T23:31:19.655Z,6.90
2019-03-10T23:34:44.329Z,6.90
2019-03-10T23:41:14.822Z,6.90
2019-03-10T23:47:45.730Z,6.90
2019-03-10T23:51:10.258Z,6.80
2019-03-10T23:57:40.810Z,6.60
